.
WxDataArchive / Data Records for 2011-03-02
2011-03-01 March 2011 2011-03-03

Data Records for Wednesday, 02 March 2011

Time	Temp	Chill	HIndex	Humid	Dewpt	 Wind 	HiWind	WindDir	Rain 	Barom 
-----	----	-----	------	-----	-----	------	------	-------	-----	----- 
00:00	37.3	37.3	37.3	69	28.1	1	4	225	0.00	30.158 
00:05	37.2	37.2	37.2	69	28.0	3	6	248	0.00	30.158 
00:10	37.2	37.2	37.2	69	28.0	2	4	248	0.00	30.158 
00:15	37.3	37.3	37.3	68	27.7	3	6	248	0.00	30.152 
00:20	37.2	37.2	37.2	68	27.6	2	4	248	0.00	30.152 
00:25	37.2	37.2	37.2	69	28.0	2	6	248	0.00	30.152 
00:30	37.2	37.2	37.2	69	28.0	2	6	248	0.00	30.148 
00:35	37.2	37.2	37.2	69	28.0	2	5	248	0.00	30.148 
00:40	37.2	37.2	37.2	69	28.0	2	4	225	0.00	30.148 
00:45	37.2	37.2	37.2	69	28.0	3	6	248	0.00	30.144 
00:50	37.2	37.2	37.2	69	28.0	2	6	270	0.00	30.144 
00:55	37.2	37.2	37.2	69	28.0	2	5	248	0.00	30.144 
01:00	37.2	37.2	37.2	69	28.0	2	5	248	0.00	30.142 
01:05	37.2	37.2	37.2	69	28.0	2	5	270	0.00	30.142 
01:10	37.2	37.2	37.2	69	28.0	2	5	248	0.00	30.142 
01:15	37.0	37.0	37.0	69	27.8	2	5	248	0.00	30.140 
01:20	37.0	37.0	37.0	69	27.8	2	6	248	0.00	30.140 
01:25	37.0	37.0	37.0	69	27.8	2	4	248	0.00	30.140 
01:30	37.0	37.0	37.0	69	27.8	2	6	248	0.00	30.146 
01:35	37.0	37.0	37.0	69	27.8	2	5	225	0.00	30.146 
01:40	37.0	37.0	37.0	70	28.1	2	4	248	0.00	30.146 
01:45	36.9	36.9	36.9	70	28.0	1	3	248	0.00	30.153 
01:50	36.8	36.8	36.8	70	27.9	2	4	248	0.00	30.153 
01:55	36.8	36.8	36.8	71	28.3	2	5	248	0.00	30.153 
02:00	36.6	36.6	36.6	71	28.1	2	3	248	0.00	30.156 
02:05	36.6	36.6	36.6	71	28.1	1	4	270	0.00	30.156 
02:10	36.5	36.5	36.5	72	28.3	2	3	270	0.00	30.156 
02:15	36.3	36.3	36.3	72	28.2	1	3	270	0.00	30.158 
02:20	36.2	36.2	36.2	72	28.1	2	4	202	0.00	30.158 
02:25	36.0	36.0	36.0	73	28.2	1	5	248	0.00	30.158 
02:30	35.9	35.9	35.9	73	28.1	1	3	248	0.00	30.156 
02:35	35.6	35.6	35.6	74	28.1	1	3	248	0.00	30.156 
02:40	35.5	35.5	35.5	74	28.0	1	3	225	0.00	30.156 
02:45	35.3	35.3	35.3	75	28.2	1	4	248	0.00	30.157 
02:50	35.3	35.3	35.3	75	28.2	1	4	248	0.00	30.157 
02:55	35.2	35.2	35.2	76	28.4	1	2	248	0.00	30.157 
03:00	35.0	35.0	35.0	76	28.2	2	7	248	0.00	30.156 
03:05	35.0	35.0	35.0	76	28.2	1	4	248	0.00	30.156 
03:10	34.9	34.9	34.9	77	28.4	1	3	270	0.00	30.156 
03:15	34.7	34.7	34.7	77	28.2	1	3	270	0.00	30.155 
03:20	34.4	34.4	34.4	77	27.9	1	2	270	0.00	30.155 
03:25	34.3	34.3	34.3	78	28.2	1	3	270	0.00	30.155 
03:30	34.1	34.1	34.1	78	28.0	1	2	270	0.00	30.154 
03:35	34.0	34.0	34.0	79	28.2	1	3	270	0.00	30.154 
03:40	34.0	34.0	34.0	79	28.2	1	2	270	0.00	30.154 
03:45	34.0	34.0	34.0	80	28.5	1	3	270	0.00	30.160 
03:50	33.8	33.8	33.8	80	28.3	1	3	270	0.00	30.160 
03:55	33.8	33.8	33.8	80	28.3	1	2	270	0.00	30.160 
04:00	33.7	33.7	33.7	81	28.5	0	2	270	0.00	30.160 
04:05	33.5	33.5	33.5	81	28.3	1	2	270	0.00	30.160 
04:10	33.5	33.5	33.5	81	28.3	1	2	270	0.00	30.160 
04:15	33.5	33.5	33.5	82	28.6	1	3	270	0.00	30.165 
04:20	33.5	33.5	33.5	82	28.6	1	3	270	0.00	30.165 
04:25	33.5	33.5	33.5	82	28.6	1	3	270	0.00	30.165 
04:30	33.5	33.5	33.5	82	28.6	1	3	270	0.00	30.170 
04:35	33.4	33.4	33.4	82	28.5	1	3	270	0.00	30.170 
04:40	33.4	33.4	33.4	83	28.8	1	2	270	0.00	30.170 
04:45	33.2	33.2	33.2	83	28.6	1	2	270	0.00	30.175 
04:50	33.1	33.1	33.1	83	28.5	1	2	270	0.00	30.175 
04:55	32.9	32.9	32.9	83	28.3	0	2	270	0.00	30.175 
05:00	32.8	32.8	32.8	84	28.5	0	2	270	0.00	30.185 
05:05	32.7	32.7	32.7	84	28.4	0	2	270	0.00	30.185 
05:10	32.7	32.7	32.7	84	28.4	0	1	270	0.00	30.185 
05:15	32.5	32.5	32.5	85	28.5	0	1	270	0.00	30.194 
05:20	32.5	32.5	32.5	85	28.5	0	1	270	0.00	30.194 
05:25	32.7	32.7	32.7	86	29.0	0	2	270	0.00	30.194 
05:30	32.8	32.8	32.8	86	29.1	0	2	270	0.00	30.203 
05:35	32.9	32.9	32.9	86	29.2	0	2	270	0.00	30.203 
05:40	33.1	33.1	33.1	86	29.4	0	2	270	0.00	30.203 
05:45	33.1	33.1	33.1	85	29.1	0	2	270	0.00	30.210 
05:50	33.2	33.2	33.2	85	29.2	1	3	270	0.00	30.210 
05:55	33.4	33.4	33.4	85	29.4	1	3	270	0.00	30.210 
06:00	33.4	33.4	33.4	84	29.1	0	2	270	0.00	30.220 
06:05	33.4	33.4	33.4	84	29.1	1	3	270	0.00	30.220 
06:10	33.4	33.4	33.4	84	29.1	1	2	270	0.00	30.220 
06:15	33.4	33.4	33.4	84	29.1	1	3	338	0.00	30.232 
06:20	33.2	33.2	33.2	84	28.9	1	4	225	0.00	30.232 
06:25	33.2	33.2	33.2	84	28.9	1	3	315	0.00	30.232 
06:30	33.2	33.2	33.2	83	28.6	0	1	315	0.00	30.241 
06:35	33.1	33.1	33.1	83	28.5	0	2	315	0.00	30.241 
06:40	32.9	32.9	32.9	83	28.3	0	2	315	0.00	30.241 
06:45	32.9	32.9	32.9	83	28.3	1	3	248	0.00	30.248 
06:50	32.8	32.8	32.8	83	28.2	0	2	0	0.00	30.248 
06:55	32.8	32.8	32.8	83	28.2	0	2	315	0.00	30.248 
07:00	32.7	32.7	32.7	83	28.1	0	1	315	0.00	30.256 
07:05	32.5	32.5	32.5	83	27.9	0	1	315	0.00	30.256 
07:10	32.4	32.4	32.4	83	27.8	0	1	315	0.00	30.256 
07:15	32.2	32.2	32.2	83	27.6	0	3	315	0.00	30.269 
07:20	32.2	32.2	32.2	83	27.6	0	2	338	0.00	30.269 
07:25	32.1	32.1	32.1	83	27.5	0	2	338	0.00	30.269 
07:30	32.1	32.1	32.1	83	27.5	0	2	338	0.00	30.283 
07:35	32.1	32.1	32.1	83	27.5	0	2	338	0.00	30.283 
07:40	32.2	32.2	32.2	82	27.3	1	4	270	0.00	30.283 
07:45	32.4	32.4	32.4	81	27.2	1	4	270	0.00	30.290 
07:50	32.5	32.5	32.5	80	27.0	0	2	270	0.00	30.290 
07:55	32.7	32.7	32.7	79	26.9	0	3	270	0.00	30.290 
08:00	32.8	32.8	32.8	77	26.4	1	3	248	0.00	30.302 
08:05	33.1	33.1	33.1	77	26.7	0	2	248	0.00	30.302 
08:10	33.2	33.2	33.2	76	26.5	1	6	292	0.00	30.302 
08:15	33.4	33.4	33.4	74	26.0	2	5	0	0.00	30.311 
08:20	33.5	33.5	33.5	73	25.8	1	5	338	0.00	30.311 
08:25	33.8	33.8	33.8	72	25.7	1	3	315	0.00	30.311 
08:30	34.0	34.0	34.0	70	25.3	2	5	292	0.00	30.315 
08:35	34.1	34.1	34.1	70	25.4	1	4	315	0.00	30.315 
08:40	34.1	34.1	34.1	69	25.0	2	5	338	0.00	30.315 
08:45	34.3	34.3	34.3	69	25.2	1	3	292	0.00	30.323 
08:50	34.4	34.4	34.4	69	25.3	1	4	292	0.00	30.323 
08:55	34.6	34.6	34.6	68	25.1	2	4	270	0.00	30.323 
09:00	34.6	34.6	34.6	67	24.8	3	6	270	0.00	30.332 
09:05	34.6	34.6	34.6	67	24.8	2	5	315	0.00	30.332 
09:10	34.7	34.7	34.7	66	24.5	2	5	315	0.00	30.332 
09:15	35.0	35.0	35.0	66	24.8	1	4	338	0.00	30.343 
09:20	35.2	35.2	35.2	65	24.6	2	5	270	0.00	30.343 
09:25	35.3	35.3	35.3	65	24.7	2	5	270	0.00	30.343 
09:30	35.6	35.6	35.6	64	24.6	2	7	0	0.00	30.349 
09:35	35.5	35.5	35.5	62	23.8	3	9	338	0.00	30.349 
09:40	35.5	35.5	35.5	62	23.8	2	6	22	0.00	30.349 
09:45	35.8	35.8	35.8	62	24.1	2	4	0	0.00	30.356 
09:50	35.9	35.9	35.9	61	23.8	1	6	0	0.00	30.356 
09:55	35.9	35.9	35.9	58	22.6	3	10	338	0.00	30.356 
10:00	36.0	36.0	36.0	58	22.7	2	5	315	0.00	30.365 
10:05	36.2	36.2	36.2	58	22.9	2	7	338	0.00	30.365 
10:10	36.2	36.2	36.2	56	22.0	2	10	0	0.00	30.365 
10:15	36.3	36.3	36.3	58	23.0	1	5	0	0.00	30.378 
10:20	36.6	36.6	36.6	59	23.6	2	6	315	0.00	30.378 
10:25	36.8	36.8	36.8	57	23.0	1	5	315	0.00	30.378 
10:30	37.2	37.2	37.2	59	24.2	1	4	338	0.00	30.384 
10:35	37.2	37.2	37.2	58	23.8	2	7	270	0.00	30.384 
10:40	37.0	37.0	37.0	58	23.6	2	6	270	0.00	30.384 
10:45	37.2	37.2	37.2	56	23.0	1	4	338	0.00	30.389 
10:50	37.3	37.3	37.3	57	23.5	1	5	0	0.00	30.389 
10:55	37.5	37.5	37.5	56	23.2	2	5	0	0.00	30.389 
11:00	37.5	37.5	37.5	54	22.4	2	5	22	0.00	30.393 
11:05	37.3	37.3	37.3	54	22.2	2	5	45	0.00	30.393 
11:10	37.5	37.5	37.5	56	23.2	2	4	22	0.00	30.393 
11:15	37.8	37.8	37.8	55	23.1	1	4	338	0.00	30.397 
11:20	38.0	38.0	38.0	54	22.9	1	4	315	0.00	30.397 
11:25	38.0	38.0	38.0	52	22.0	1	5	292	0.00	30.397 
11:30	38.0	38.0	38.0	52	22.0	2	10	338	0.00	30.402 
11:35	38.3	38.3	38.3	54	23.1	1	4	22	0.00	30.402 
11:40	38.8	38.8	38.8	53	23.2	1	4	338	0.00	30.402 
11:45	38.9	38.9	38.9	49	21.4	1	4	315	0.00	30.406 
11:50	38.6	38.6	38.6	51	22.1	1	4	270	0.00	30.406 
11:55	38.9	38.9	38.9	50	21.9	1	4	292	0.00	30.406 
12:00	38.9	38.9	38.9	50	21.9	1	3	292	0.00	30.412 
12:05	38.9	38.9	38.9	48	20.9	1	5	0	0.00	30.412 
12:10	39.1	39.1	39.1	50	22.0	1	4	338	0.00	30.412 
12:15	39.1	39.1	39.1	53	23.4	1	3	270	0.00	30.420 
12:20	39.1	39.1	39.1	50	22.0	1	4	315	0.00	30.420 
12:25	39.1	39.1	39.1	49	21.6	1	6	22	0.00	30.420 
12:30	39.2	39.2	39.2	47	20.7	1	4	315	0.00	30.422 
12:35	39.1	39.1	39.1	47	20.6	1	3	0	0.00	30.422 
12:40	39.1	39.1	39.1	46	20.1	1	3	315	0.00	30.422 
12:45	39.3	39.3	39.3	44	19.2	1	9	22	0.00	30.423 
12:50	39.2	39.2	39.2	43	18.6	1	4	0	0.00	30.423 
12:55	39.1	39.1	39.1	44	19.0	1	3	315	0.00	30.423 
13:00	39.2	39.2	39.2	46	20.2	1	5	45	0.00	30.418 
13:05	39.3	39.3	39.3	46	20.3	1	5	338	0.00	30.418 
13:10	39.1	39.1	39.1	43	18.5	2	5	270	0.00	30.418 
13:15	38.9	38.9	38.9	42	17.8	2	5	338	0.00	30.412 
13:20	38.9	38.9	38.9	41	17.2	1	5	0	0.00	30.412 
13:25	38.9	38.9	38.9	43	18.3	1	4	270	0.00	30.412 
13:30	39.1	39.1	39.1	39	16.3	2	5	270	0.00	30.413 
13:35	39.1	39.1	39.1	39	16.3	1	3	315	0.00	30.413 
13:40	39.1	39.1	39.1	41	17.4	1	3	315	0.00	30.413 
13:45	39.3	39.3	39.3	43	18.7	1	3	22	0.00	30.416 
13:50	39.3	39.3	39.3	40	17.0	1	4	270	0.00	30.416 
13:55	39.5	39.5	39.5	42	18.3	1	4	270	0.00	30.416 
14:00	39.3	39.3	39.3	41	17.6	1	3	270	0.00	30.419 
14:05	39.3	39.3	39.3	42	18.1	0	2	0	0.00	30.419 
14:10	39.5	39.5	39.5	42	18.3	1	3	270	0.00	30.419 
14:15	39.2	39.2	39.2	42	18.1	1	5	270	0.00	30.423 
14:20	39.3	39.3	39.3	42	18.1	1	3	315	0.00	30.423 
14:25	39.3	39.3	39.3	39	16.4	1	3	270	0.00	30.423 
14:30	39.5	39.5	39.5	40	17.2	1	3	292	0.00	30.421 
14:35	39.6	39.6	39.6	41	17.9	0	2	45	0.00	30.421 
14:40	39.8	39.8	39.8	35	14.4	1	3	135	0.00	30.421 
14:45	39.8	39.8	39.8	39	16.9	1	6	315	0.00	30.423 
14:50	39.9	39.9	39.9	40	17.6	0	1	270	0.00	30.423 
14:55	39.8	39.8	39.8	39	16.9	1	4	22	0.00	30.423 
15:00	39.6	39.6	39.6	36	14.9	1	3	338	0.00	30.425 
15:05	39.5	39.5	39.5	37	15.4	0	3	338	0.00	30.425 
15:10	39.3	39.3	39.3	39	16.4	1	6	22	0.00	30.425 
15:15	39.5	39.5	39.5	39	16.6	1	2	338	0.00	30.429 
15:20	39.8	39.8	39.8	41	18.0	0	1	0	0.00	30.429 
15:25	39.9	39.9	39.9	38	16.4	1	4	45	0.00	30.429 
15:30	39.6	39.6	39.6	38	16.1	1	3	315	0.00	30.440 
15:35	39.3	39.3	39.3	39	16.4	1	3	0	0.00	30.440 
15:40	39.5	39.5	39.5	39	16.6	1	3	270	0.00	30.440 
15:45	39.3	39.3	39.3	36	14.6	2	6	292	0.00	30.445 
15:50	39.1	39.1	39.1	35	13.8	2	5	270	0.00	30.445 
15:55	39.1	39.1	39.1	38	15.7	2	5	292	0.00	30.445 
16:00	38.8	38.8	38.8	36	14.2	1	5	292	0.00	30.444 
16:05	38.9	38.9	38.9	35	13.6	1	4	292	0.00	30.444 
16:10	38.8	38.8	38.8	38	15.4	1	7	338	0.00	30.444 
16:15	38.6	38.6	38.6	37	14.6	0	3	338	0.00	30.444 
16:20	38.5	38.5	38.5	38	15.1	1	5	292	0.00	30.444 
16:25	38.6	38.6	38.6	40	16.4	0	2	315	0.00	30.444 
16:30	38.6	38.6	38.6	38	15.2	1	3	315	0.00	30.447 
16:35	38.8	38.8	38.8	38	15.4	0	2	0	0.00	30.447 
16:40	38.8	38.8	38.8	34	12.9	1	3	22	0.00	30.447 
16:45	38.5	38.5	38.5	31	10.5	1	4	270	0.00	30.456 
16:50	38.3	38.3	38.3	34	12.4	1	6	338	0.00	30.456 
16:55	38.3	38.3	38.3	37	14.3	0	2	338	0.00	30.456 
17:00	38.2	38.2	38.2	38	14.9	0	2	338	0.00	30.459 
17:05	38.0	38.0	38.0	37	14.1	0	3	0	0.00	30.459 
17:10	37.9	37.9	37.9	39	15.2	1	5	270	0.00	30.459 
17:15	37.8	37.8	37.8	38	14.5	0	2	0	0.00	30.458 
17:20	37.6	37.6	37.6	38	14.3	0	2	292	0.00	30.458 
17:25	37.5	37.5	37.5	39	14.8	0	2	45	0.00	30.458 
17:30	37.3	37.3	37.3	37	13.4	0	3	292	0.00	30.461 
17:35	37.2	37.2	37.2	38	14.0	0	3	112	0.00	30.461 
17:40	36.9	36.9	36.9	38	13.7	0	1	315	0.00	30.461 
17:45	36.8	36.8	36.8	38	13.6	0	1	315	0.00	30.464 
17:50	36.5	36.5	36.5	37	12.7	0	2	0	0.00	30.464 
17:55	36.3	36.3	36.3	36	11.9	0	2	0	0.00	30.464 
18:00	36.2	36.2	36.2	38	13.1	0	3	0	0.00	30.470 
18:05	36.0	36.0	36.0	39	13.5	0	1	0	0.00	30.470 
18:10	35.8	35.8	35.8	39	13.3	0	2	0	0.00	30.470 
18:15	35.5	35.5	35.5	38	12.4	0	1	0	0.00	30.471 
18:20	35.3	35.3	35.3	40	13.4	0	1	0	0.00	30.471 
18:25	35.0	35.0	35.0	42	14.3	0	1	0	0.00	30.471 
18:30	34.7	34.7	34.7	43	14.5	0	1	0	0.00	30.475 
18:35	34.4	34.4	34.4	44	14.8	0	0	---	0.00	30.475 
18:40	34.1	34.1	34.1	44	14.5	0	0	---	0.00	30.475 
18:45	33.8	33.8	33.8	46	15.2	0	0	---	0.00	30.477 
18:50	33.5	33.5	33.5	48	15.9	0	0	---	0.00	30.477 
18:55	33.2	33.2	33.2	50	16.6	0	1	0	0.00	30.477 
19:00	32.9	32.9	32.9	50	16.3	0	2	22	0.00	30.484 
19:05	32.7	32.7	32.7	50	16.1	0	1	22	0.00	30.484 
19:10	32.4	32.4	32.4	50	15.9	0	1	22	0.00	30.484 
19:15	32.2	32.2	32.2	50	15.7	0	1	22	0.00	30.496 
19:20	31.9	31.9	31.9	50	15.4	0	0	---	0.00	30.496 
19:25	31.8	31.8	31.8	50	15.3	0	1	22	0.00	30.496 
19:30	31.5	31.5	31.5	50	15.0	0	1	22	0.00	30.498 
19:35	31.3	31.3	31.3	51	15.3	0	1	22	0.00	30.498 
19:40	31.3	31.3	31.3	51	15.3	0	1	22	0.00	30.498 
19:45	31.0	31.0	31.0	51	15.0	0	1	22	0.00	30.496 
19:50	30.9	30.9	30.9	51	14.9	0	1	22	0.00	30.496 
19:55	30.7	30.7	30.7	51	14.7	0	0	---	0.00	30.496 
20:00	30.6	30.6	30.6	52	15.1	0	1	22	0.00	30.494 
20:05	30.6	30.6	30.6	52	15.1	0	1	22	0.00	30.494 
20:10	30.4	30.4	30.4	52	14.9	0	0	---	0.00	30.494 
20:15	30.3	30.3	30.3	53	15.2	0	0	---	0.00	30.494 
20:20	30.0	30.0	30.0	53	15.0	0	1	22	0.00	30.494 
20:25	29.8	29.8	29.8	53	14.8	0	0	---	0.00	30.494 
20:30	29.7	29.7	29.7	53	14.7	0	0	---	0.00	30.488 
20:35	29.5	29.5	29.5	53	14.5	0	2	22	0.00	30.488 
20:40	29.5	29.5	29.5	53	14.5	0	2	22	0.00	30.488 
20:45	29.7	29.7	29.7	53	14.7	0	2	45	0.00	30.492 
20:50	29.7	29.7	29.7	54	15.1	0	2	45	0.00	30.492 
20:55	29.8	29.8	29.8	54	15.2	1	3	68	0.00	30.492 
21:00	29.8	29.8	29.8	54	15.2	1	5	90	0.00	30.490 
21:05	29.7	29.7	29.7	55	15.5	1	3	90	0.00	30.490 
21:10	29.7	29.7	29.7	56	15.9	1	6	90	0.00	30.490 
21:15	29.5	29.5	29.5	57	16.2	1	5	112	0.00	30.493 
21:20	29.4	29.4	29.4	57	16.1	1	3	112	0.00	30.493 
21:25	29.4	29.4	29.4	58	16.5	2	3	112	0.00	30.493 
21:30	29.3	29.3	29.3	58	16.4	1	3	90	0.00	30.497 
21:35	29.1	29.1	29.1	59	16.6	1	3	90	0.00	30.497 
21:40	29.0	29.0	29.0	60	16.9	1	3	90	0.00	30.497 
21:45	28.8	28.8	28.8	60	16.7	1	3	90	0.00	30.497 
21:50	28.8	28.8	28.8	61	17.1	1	4	90	0.00	30.497 
21:55	28.7	28.7	28.7	61	17.0	1	3	90	0.00	30.497 
22:00	28.5	28.5	28.5	62	17.2	1	3	90	0.00	30.506 
22:05	28.4	28.4	28.4	63	17.4	0	3	90	0.00	30.506 
22:10	28.2	28.2	28.2	63	17.2	0	2	90	0.00	30.506 
22:15	27.9	27.9	27.9	63	17.0	1	2	90	0.00	30.506 
22:20	27.8	27.8	27.8	63	16.9	1	3	90	0.00	30.506 
22:25	27.6	27.6	27.6	63	16.7	1	3	90	0.00	30.506 
22:30	27.6	27.6	27.6	63	16.7	1	5	90	0.00	30.500 
22:35	27.6	27.6	27.6	62	16.3	1	3	90	0.00	30.500 
22:40	27.5	27.5	27.5	62	16.2	1	4	90	0.00	30.500 
22:45	27.5	27.5	27.5	62	16.2	1	3	90	0.00	30.497 
22:50	27.5	27.5	27.5	62	16.2	1	4	90	0.00	30.497 
22:55	27.3	27.3	27.3	63	16.4	1	4	90	0.00	30.497 
23:00	27.3	27.3	27.3	63	16.4	2	4	90	0.00	30.500 
23:05	27.2	27.2	27.2	64	16.7	1	3	90	0.00	30.500 
23:10	27.0	27.0	27.0	64	16.5	1	3	90	0.00	30.500 
23:15	27.0	27.0	27.0	65	16.8	1	3	90	0.00	30.501 
23:20	26.9	26.9	26.9	66	17.1	1	3	90	0.00	30.501 
23:25	26.7	26.7	26.7	66	16.9	1	2	90	0.00	30.501 
23:30	26.6	26.6	26.6	67	17.1	1	2	90	0.00	30.501 
23:35	26.4	26.4	26.4	67	17.0	1	4	90	0.00	30.501 
23:40	26.4	26.4	26.4	68	17.3	1	3	90	0.00	30.501 
23:45	26.3	26.3	26.3	69	17.5	0	2	90	0.00	30.505 
23:50	26.3	26.3	26.3	69	17.5	1	3	90	0.00	30.505 
23:55	26.3	26.3	26.3	69	17.5	1	2	90	0.00	30.505 

CoCoRaHS
IN-AL-39
A2 Web Hosting
Creative Commons License
GoDaddy
search engine by freefind advanced

loaded 2018-11-17 18:37:12 • last modified 2010-11-18 10:43:29
Privacy PolicyDisclaimer
• wx.awcolley.com is powered by PmWiki v.2002016 •
• all content (unless otherwise noted) © 2018 A W Colley